• Join FlightAware (Why Join?)
  • Login
  • US Flag 
06:06PM EDT


 

Airport Tracker/Info


-or-


 

Live Flight TrackerFlight Track Log ✈ EJA929 ✈ 27-Feb-2014 ✈ KTEB - KPDK

Flight Track Log - Related Links

Times and Time Zones

All times are in EST time to prevent confusion due to time zone crossing. See the EJA929 flight status page for this flight to view local times or setup timezone preferences in your user account.

Time Position Orientation Groundspeed Altitude Reporting Facility
EST Latitude Longitude Course Direction KTS MPH feet Rate Location/Type
10:10AM 40.8333 -74.0833 252° West 160 184 1,200  Level New York TRACON
10:11AM 40.8167 -74.1500 252° West 201 231 1,500 2,220 Climbing New York TRACON
10:13AM 40.7581 -74.3244 246° West 221 254 8,900 2,880 Climbing New York Center
10:14AM 40.7369 -74.4025 250° West 219 252 11,500 2,400 Climbing New York Center
10:15AM 40.7114 -74.4917 249° West 254 292 13,800 2,580 Climbing New York Center
10:16AM 40.6856 -74.5833 250° West 272 313 16,700 2,700 Climbing New York Center
10:17AM 40.6619 -74.6667 250° West 272 313 19,200 2,400 Climbing New York Center
10:18AM 40.6358 -74.7608 250° West 272 313 21,600 2,520 Climbing New York Center
10:19AM 40.5931 -74.8542 239° Southwest 282 325 24,300 2,340 Climbing New York Center
10:20AM 40.5483 -74.9444 237° Southwest 295 339 26,400 2,100 Climbing New York Center
10:21AM 40.4989 -75.0394 236° Southwest 307 353 28,500 1,980 Climbing New York Center
10:22AM 40.4494 -75.1375 236° Southwest 320 368 30,400 2,040 Climbing New York Center
10:23AM 40.4000 -75.2350 236° Southwest 325 374 32,600 1,800 Climbing New York Center
10:24AM 40.3439 -75.3406 235° Southwest 338 389 34,000 1,500 Climbing New York Center
10:25AM 40.2875 -75.4483 236° Southwest 354 407 35,600 960 Climbing New York Center
10:26AM 40.2289 -75.5611 236° Southwest 366 421 36,000 180 Climbing New York Center
10:27AM 40.1653 -75.6872 237° Southwest 394 453 36,000  Level New York Center
10:28AM 40.0997 -75.8103 235° Southwest 415 478 36,000  Level New York Center
10:29AM 40.0269 -75.9486 236° Southwest 426 490 36,000  Level New York Center
10:30AM 39.9717 -76.0664 239° Southwest 426 490 36,000 300 Level New York Center
10:31AM 39.9033 -76.1967 236° Southwest 426 490 36,600 960 Climbing New York Center
10:32AM 39.8286 -76.3233 232° Southwest 426 490 38,000 660 Climbing New York Center
10:33AM 39.7506 -76.4278 226° Southwest 420 483 38,000  Level New York Center
10:34AM 39.6831 -76.5192 226° Southwest 411 473 38,000  Level Washington Center
10:35AM 39.6136 -76.6097 225° Southwest 398 458 38,000  Level Washington Center
10:36AM 39.5314 -76.7161 225° Southwest 398 458 38,000  Level Washington Center
10:37AM 39.4531 -76.8197 226° Southwest 403 464 38,000  Level Washington Center
10:38AM 39.3750 -76.9206 225° Southwest 403 464 38,000  Level Washington Center
10:39AM 39.2967 -77.0236 226° Southwest 403 464 38,000  Level Washington Center
10:40AM 39.2161 -77.1292 225° Southwest 403 464 38,000  Level Washington Center
10:41AM 39.1356 -77.2347 225° Southwest 408 470 38,000  Level Washington Center
10:42AM 39.0550 -77.3397 225° Southwest 408 470 38,000  Level Washington Center
10:43AM 38.9742 -77.4419 225° Southwest 408 470 38,000  Level Washington Center
10:44AM 38.8850 -77.5517 224° Southwest 408 470 38,000  Level Washington Center
10:45AM 38.8100 -77.6642 229° Southwest 408 470 38,000  Level Washington Center
10:46AM 38.7228 -77.7603 221° Southwest 408 470 38,000  Level Washington Center
10:47AM 38.6439 -77.8644 226° Southwest 408 470 38,000  Level Washington Center
10:48AM 38.5750 -77.9792 232° Southwest 408 470 38,000  Level Washington Center
10:49AM 38.5081 -78.0911 233° Southwest 408 470 38,000  Level Washington Center
10:50AM 38.4408 -78.2053 233° Southwest 408 470 38,000  Level Washington Center
10:51AM 38.3889 -78.2936 233° Southwest 408 470 38,000  Level Washington Center
10:52AM 38.3133 -78.4125 231° Southwest 403 464 38,000  Level Washington Center
10:53AM 38.2439 -78.5211 231° Southwest 403 464 38,000  Level Washington Center
10:54AM 38.1764 -78.6347 233° Southwest 403 464 38,000  Level Washington Center
10:55AM 38.1003 -78.7556 231° Southwest 408 470 38,000  Level Washington Center
10:56AM 38.0306 -78.8633 231° Southwest 408 470 38,000  Level Washington Center
10:57AM 37.9589 -78.9736 231° Southwest 408 470 38,000  Level Washington Center
10:58AM 37.8889 -79.0836 231° Southwest 408 470 38,000  Level Washington Center
10:59AM 37.8167 -79.1933 230° Southwest 408 470 38,000  Level Washington Center
11:00AM 37.7511 -79.2950 231° Southwest 414 476 38,000  Level Washington Center
11:01AM 37.6703 -79.4119 229° Southwest 414 476 38,000  Level Washington Center
11:02AM 37.6044 -79.5108 230° Southwest 414 476 38,000  Level Washington Center
11:03AM 37.5275 -79.6325 231° Southwest 414 476 38,000  Level Washington Center
11:04AM 37.4614 -79.7336 231° Southwest 414 476 38,000  Level Washington Center
11:05AM 37.3864 -79.8497 231° Southwest 420 483 38,000  Level Washington Center
11:06AM 37.3136 -79.9581 230° Southwest 420 483 38,000  Level Washington Center
11:08AM 37.1394 -80.2167 230° Southwest 401 461 38,000  Level Atlanta Center
11:09AM 37.0656 -80.3269 230° Southwest 401 461 38,000  Level Atlanta Center
11:10AM 36.9939 -80.4344 230° Southwest 401 461 38,000  Level Atlanta Center
11:11AM 36.9197 -80.5417 229° Southwest 406 467 38,000  Level Atlanta Center
11:12AM 36.8536 -80.6406 230° Southwest 411 473 38,000  Level Atlanta Center
11:13AM 36.7817 -80.7472 230° Southwest 411 473 38,000  Level Atlanta Center
11:14AM 36.7072 -80.8539 229° Southwest 411 473 38,000  Level Atlanta Center
11:15AM 36.6350 -80.9628 230° Southwest 411 473 38,000  Level Atlanta Center
11:16AM 36.5525 -81.0822 229° Southwest 411 473 38,000  Level Atlanta Center
11:17AM 36.4819 -81.1908 231° Southwest 411 473 38,000  Level Atlanta Center
11:18AM 36.4072 -81.2992 229° Southwest 411 473 38,000  Level Atlanta Center
11:19AM 36.3306 -81.4100 229° Southwest 416 479 38,000  Level Atlanta Center
11:20AM 36.2556 -81.5181 229° Southwest 416 479 38,000  Level Atlanta Center
11:21AM 36.1806 -81.6258 229° Southwest 416 479 38,000  Level Atlanta Center
11:22AM 36.1014 -81.7361 228° Southwest 422 486 38,000  Level Atlanta Center
11:23AM 36.0261 -81.8461 230° Southwest 427 491 38,000  Level Atlanta Center
11:24AM 35.9489 -81.9558 229° Southwest 422 486 38,000  Level Atlanta Center
11:25AM 35.8714 -82.0656 229° Southwest 422 486 38,000  Level Atlanta Center
11:26AM 35.8019 -82.1619 228° Southwest 427 491 38,000 -720 Level Atlanta Center
11:27AM 35.7244 -82.2736 229° Southwest 427 491 36,600 -1,500 Descending Atlanta Center
11:28AM 35.6467 -82.3828 229° Southwest 427 491 35,000 -840 Descending Atlanta Center
11:29AM 35.5686 -82.4889 228° Southwest 422 486 35,000 -120 Level Atlanta Center
11:30AM 35.4908 -82.6003 229° Southwest 422 486 34,800 -1,320 Descending Atlanta Center
11:31AM 35.4106 -82.7111 228° Southwest 432 497 32,400 -2,400 Descending Atlanta Center
11:32AM 35.3283 -82.8294 230° Southwest 446 513 30,100 -2,340 Descending Atlanta Center
11:33AM 35.2439 -82.9428 228° Southwest 454 522 27,800 3,900 Descending Atlanta Center
11:34AM 35.1594 -83.0606 229° Southwest 459 528 38,000 -2,040 Climbing Atlanta Center
11:35AM 35.0789 -83.1733 229° Southwest 459 528 23,800 -8,100 Descending Atlanta Center
11:36AM 35.0003 -83.2806 228° Southwest 447 514 21,800 -1,980 Descending Atlanta Center
11:37AM 34.9217 -83.3853 228° Southwest 437 503 19,900 -1,860 Descending Atlanta Center
11:38AM 34.8450 -83.4919 229° Southwest 432 497 18,100 -1,980 Descending Atlanta Center
11:39AM 34.7619 -83.6039 228° Southwest 418 481 16,000 -1,980 Descending Atlanta Center
11:40AM 34.6850 -83.7053 227° Southwest 412 474 14,200 -1,620 Descending Atlanta Center
11:41AM 34.6164 -83.7964 228° Southwest 412 474 12,800 -1,620 Descending Atlanta Center
11:42AM 34.5517 -83.8850 228° Southwest 379 436 11,000 -1,440 Descending Atlanta Center
11:43AM 34.4997 -83.9581 229° Southwest 325 374 10,000 -1,440 Descending Atlanta Center
11:44AM 34.4372 -84.0086 214° Southwest 281 323 8,200 -1,020 Descending Atlanta Center
11:45AM 34.3661 -84.0439 202° Southwest 276 318 8,000 -120 Descending Atlanta Center
11:46AM 34.2953 -84.0842 205° Southwest 276 318 8,000  Level Atlanta Center
11:47AM 34.2222 -84.1142 199° South 276 318 8,000 -780 Level Atlanta Center
11:48AM 34.1364 -84.1292 188° South 281 323 6,500 -1,560 Descending Atlanta Center
11:49AM 34.0667 -84.1333 183° South 243 280 5,000 -1,740 Descending Atlanta TRACON
11:50AM 34.0000 -84.1667 203° Southwest 225 259 3,000 -1,200 Descending Atlanta TRACON
11:51AM 33.9500 -84.1833 195° South 208 239 2,500 -240 Descending Atlanta TRACON
11:53AM 33.9000 -84.2167 209° Southwest 214 246 2,500 -120 Level Atlanta TRACON
11:54AM 33.8500 -84.2500 209° Southwest 195 224 2,300 -300 Descending Atlanta TRACON
11:54AM 33.8333 -84.3000 248° West 139 160 2,000 -360 Descending Atlanta TRACON
11:56AM 33.8756 -84.3020 358° North  Level Estimated
12:03PM 33.8756 -84.3020 301° West  Level Estimated